sensor_id;sensor_type;location;lat;lon;timestamp;pressure;altitude;pressure_sealevel;temperature;humidity
17311;BME280;8773;43.300;0.394;2023-05-15T00:00:17;100240.56;;;14.46;70.89
17311;BME280;8773;43.300;0.394;2023-05-15T00:02:45;100240.56;;;14.46;70.49
17311;BME280;8773;43.300;0.394;2023-05-15T00:05:12;100240.22;;;14.40;71.03
17311;BME280;8773;43.300;0.394;2023-05-15T00:07:40;100236.84;;;14.30;71.52
17311;BME280;8773;43.300;0.394;2023-05-15T00:10:08;100232.47;;;14.21;71.62
17311;BME280;8773;43.300;0.394;2023-05-15T00:12:36;100233.47;;;14.20;71.97
17311;BME280;8773;43.300;0.394;2023-05-15T00:15:05;100229.47;;;14.32;71.86
17311;BME280;8773;43.300;0.394;2023-05-15T00:17:32;100230.47;;;14.39;71.63
17311;BME280;8773;43.300;0.394;2023-05-15T00:20:00;100223.41;;;14.30;71.45
17311;BME280;8773;43.300;0.394;2023-05-15T00:22:27;100229.13;;;14.35;71.07
17311;BME280;8773;43.300;0.394;2023-05-15T00:24:55;100215.69;;;14.44;71.09
17311;BME280;8773;43.300;0.394;2023-05-15T00:27:22;100219.56;;;14.41;71.15
17311;BME280;8773;43.300;0.394;2023-05-15T00:29:51;100224.59;;;14.44;70.99
17311;BME280;8773;43.300;0.394;2023-05-15T00:32:18;100221.41;;;14.49;71.14
17311;BME280;8773;43.300;0.394;2023-05-15T00:34:46;100212.50;;;14.40;71.15
17311;BME280;8773;43.300;0.394;2023-05-15T00:37:13;100214.03;;;14.43;71.43
17311;BME280;8773;43.300;0.394;2023-05-15T00:39:40;100213.34;;;14.40;70.79
17311;BME280;8773;43.300;0.394;2023-05-15T00:42:08;100214.34;;;14.39;71.31
17311;BME280;8773;43.300;0.394;2023-05-15T00:44:37;100206.28;;;14.48;71.20
17311;BME280;8773;43.300;0.394;2023-05-15T00:47:09;100211.00;;;14.54;71.27
17311;BME280;8773;43.300;0.394;2023-05-15T00:49:37;100204.94;;;14.52;71.08
17311;BME280;8773;43.300;0.394;2023-05-15T00:52:04;100202.94;;;14.37;71.20
17311;BME280;8773;43.300;0.394;2023-05-15T00:54:32;100203.59;;;14.31;71.75
17311;BME280;8773;43.300;0.394;2023-05-15T00:57:00;100199.41;;;14.21;72.19
17311;BME280;8773;43.300;0.394;2023-05-15T00:59:29;100193.88;;;14.30;72.06
17311;BME280;8773;43.300;0.394;2023-05-15T01:01:57;100200.59;;;14.18;72.40
17311;BME280;8773;43.300;0.394;2023-05-15T01:04:27;100193.19;;;14.20;72.75
17311;BME280;8773;43.300;0.394;2023-05-15T01:06:54;100203.28;;;14.10;73.24
17311;BME280;8773;43.300;0.394;2023-05-15T01:09:23;100192.72;;;14.09;73.66
17311;BME280;8773;43.300;0.394;2023-05-15T01:11:53;100196.56;;;14.14;73.19
17311;BME280;8773;43.300;0.394;2023-05-15T01:14:20;100190.00;;;14.25;73.15
17311;BME280;8773;43.300;0.394;2023-05-15T01:16:48;100197.91;;;14.26;72.96
17311;BME280;8773;43.300;0.394;2023-05-15T01:19:16;100196.25;;;14.09;73.75
17311;BME280;8773;43.300;0.394;2023-05-15T01:22:15;100193.88;;;13.98;74.22
17311;BME280;8773;43.300;0.394;2023-05-15T01:25:17;100191.19;;;14.06;73.92
17311;BME280;8773;43.300;0.394;2023-05-15T01:27:49;100194.06;;;14.13;74.30
17311;BME280;8773;43.300;0.394;2023-05-15T01:30:21;100190.88;;;14.09;74.39
17311;BME280;8773;43.300;0.394;2023-05-15T01:32:54;100193.56;;;14.09;74.08
17311;BME280;8773;43.300;0.394;2023-05-15T01:35:30;100190.53;;;14.12;73.91
17311;BME280;8773;43.300;0.394;2023-05-15T01:38:16;100194.88;;;14.21;73.77
17311;BME280;8773;43.300;0.394;2023-05-15T01:40:46;100184.47;;;14.18;74.23
17311;BME280;8773;43.300;0.394;2023-05-15T01:43:18;100188.31;;;14.16;73.93
17311;BME280;8773;43.300;0.394;2023-05-15T01:45:48;100179.09;;;14.18;73.75
17311;BME280;8773;43.300;0.394;2023-05-15T01:48:17;100174.91;;;14.16;73.59
17311;BME280;8773;43.300;0.394;2023-05-15T01:50:46;100184.47;;;14.18;73.97
17311;BME280;8773;43.300;0.394;2023-05-15T01:53:16;100175.56;;;14.18;74.16
17311;BME280;8773;43.300;0.394;2023-05-15T01:55:46;100174.56;;;14.27;73.89
17311;BME280;8773;43.300;0.394;2023-05-15T01:58:16;100166.34;;;14.36;73.20
17311;BME280;8773;43.300;0.394;2023-05-15T02:00:45;100169.03;;;14.28;73.99
17311;BME280;8773;43.300;0.394;2023-05-15T02:03:14;100173.22;;;14.15;73.46
17311;BME280;8773;43.300;0.394;2023-05-15T02:05:42;100172.03;;;14.17;73.38
17311;BME280;8773;43.300;0.394;2023-05-15T02:08:10;100165.19;;;14.06;73.77
17311;BME280;8773;43.300;0.394;2023-05-15T02:10:38;100164.84;;;14.10;73.76
17311;BME280;8773;43.300;0.394;2023-05-15T02:13:07;100165.03;;;14.08;73.66
17311;BME280;8773;43.300;0.394;2023-05-15T02:15:37;100165.88;;;14.00;74.14
17311;BME280;8773;43.300;0.394;2023-05-15T02:18:04;100167.38;;;14.03;74.00
17311;BME280;8773;43.300;0.394;2023-05-15T02:20:32;100169.38;;;13.93;74.77
17311;BME280;8773;43.300;0.394;2023-05-15T02:22:59;100169.56;;;13.99;74.14
17311;BME280;8773;43.300;0.394;2023-05-15T02:25:33;100168.56;;;14.09;73.98
17311;BME280;8773;43.300;0.394;2023-05-15T02:28:06;100164.34;;;14.06;73.99
17311;BME280;8773;43.300;0.394;2023-05-15T02:30:45;100170.72;;;14.05;74.61
17311;BME280;8773;43.300;0.394;2023-05-15T02:33:23;100159.31;;;14.03;74.06
17311;BME280;8773;43.300;0.394;2023-05-15T02:35:56;100166.38;;;14.04;74.37
17311;BME280;8773;43.300;0.394;2023-05-15T02:38:28;100166.03;;;13.99;74.08
17311;BME280;8773;43.300;0.394;2023-05-15T02:40:57;100164.00;;;14.01;74.10
17311;BME280;8773;43.300;0.394;2023-05-15T02:43:25;100155.78;;;14.02;74.28
17311;BME280;8773;43.300;0.394;2023-05-15T02:45:55;100157.31;;;14.05;74.26
17311;BME280;8773;43.300;0.394;2023-05-15T02:48:23;100163.34;;;14.07;74.02
17311;BME280;8773;43.300;0.394;2023-05-15T02:50:51;100162.97;;;14.18;73.59
17311;BME280;8773;43.300;0.394;2023-05-15T02:53:18;100163.31;;;14.31;73.36
17311;BME280;8773;43.300;0.394;2023-05-15T02:55:46;100160.13;;;14.28;73.32
17311;BME280;8773;43.300;0.394;2023-05-15T02:58:13;100158.94;;;14.30;73.39
17311;BME280;8773;43.300;0.394;2023-05-15T03:00:41;100155.25;;;14.31;73.10
17311;BME280;8773;43.300;0.394;2023-05-15T03:03:10;100154.25;;;14.32;73.80
17311;BME280;8773;43.300;0.394;2023-05-15T03:05:37;100151.72;;;14.31;73.47
17311;BME280;8773;43.300;0.394;2023-05-15T03:08:04;100156.09;;;14.24;73.73
17311;BME280;8773;43.300;0.394;2023-05-15T03:10:32;100157.31;;;14.05;73.78
17311;BME280;8773;43.300;0.394;2023-05-15T03:12:59;100158.16;;;14.05;73.55
17311;BME280;8773;43.300;0.394;2023-05-15T03:15:27;100147.56;;;14.04;73.64
17311;BME280;8773;43.300;0.394;2023-05-15T03:17:54;100152.59;;;14.07;73.37
17311;BME280;8773;43.300;0.394;2023-05-15T03:20:24;100155.63;;;13.96;73.95
17311;BME280;8773;43.300;0.394;2023-05-15T03:22:51;100146.41;;;14.06;73.39
17311;BME280;8773;43.300;0.394;2023-05-15T03:25:19;100149.41;;;14.12;73.56
17311;BME280;8773;43.300;0.394;2023-05-15T03:27:46;100142.03;;;14.05;73.47
17311;BME280;8773;43.300;0.394;2023-05-15T03:30:13;100149.59;;;14.02;73.58
17311;BME280;8773;43.300;0.394;2023-05-15T03:32:41;100142.38;;;14.02;73.27
17311;BME280;8773;43.300;0.394;2023-05-15T03:35:09;100146.22;;;14.00;72.91
17311;BME280;8773;43.300;0.394;2023-05-15T03:37:37;100140.00;;;13.91;73.44
17311;BME280;8773;43.300;0.394;2023-05-15T03:40:06;100139.16;;;13.91;73.19
17311;BME280;8773;43.300;0.394;2023-05-15T03:42:34;100138.16;;;13.76;73.49
17311;BME280;8773;43.300;0.394;2023-05-15T03:45:01;100141.19;;;13.89;73.41
17311;BME280;8773;43.300;0.394;2023-05-15T03:47:28;100141.84;;;13.74;73.17
17311;BME280;8773;43.300;0.394;2023-05-15T03:49:56;100141.47;;;13.61;73.63
17311;BME280;8773;43.300;0.394;2023-05-15T03:52:23;100147.53;;;13.63;73.77
17311;BME280;8773;43.300;0.394;2023-05-15T03:54:52;100136.16;;;13.69;73.63
17311;BME280;8773;43.300;0.394;2023-05-15T03:57:20;100138.28;;;13.58;74.01
17311;BME280;8773;43.300;0.394;2023-05-15T03:59:47;100132.09;;;13.57;74.11
17311;BME280;8773;43.300;0.394;2023-05-15T04:02:14;100134.56;;;13.43;74.41
17311;BME280;8773;43.300;0.394;2023-05-15T04:04:42;100143.59;;;13.41;74.50
17311;BME280;8773;43.300;0.394;2023-05-15T04:07:09;100138.44;;;13.48;74.35
17311;BME280;8773;43.300;0.394;2023-05-15T04:09:37;100134.41;;;13.52;73.89
17311;BME280;8773;43.300;0.394;2023-05-15T04:12:06;100141.00;;;13.66;73.73
17311;BME280;8773;43.300;0.394;2023-05-15T04:14:33;100140.47;;;13.62;73.62
17311;BME280;8773;43.300;0.394;2023-05-15T04:17:00;100134.13;;;13.80;73.23
17311;BME280;8773;43.300;0.394;2023-05-15T04:19:28;100137.63;;;13.64;73.59
17311;BME280;8773;43.300;0.394;2023-05-15T04:21:55;100136.81;;;13.71;73.29
17311;BME280;8773;43.300;0.394;2023-05-15T04:24:23;100132.28;;;13.80;72.42
17311;BME280;8773;43.300;0.394;2023-05-15T04:26:50;100133.13;;;13.81;72.96
17311;BME280;8773;43.300;0.394;2023-05-15T04:29:19;100127.75;;;13.89;72.80
17311;BME280;8773;43.300;0.394;2023-05-15T04:31:46;100119.72;;;13.89;72.23
17311;BME280;8773;43.300;0.394;2023-05-15T04:34:13;100124.56;;;13.93;72.46
17311;BME280;8773;43.300;0.394;2023-05-15T04:36:41;100132.97;;;13.82;72.54
17311;BME280;8773;43.300;0.394;2023-05-15T04:39:09;100140.84;;;13.76;72.82
17311;BME280;8773;43.300;0.394;2023-05-15T04:41:36;100141.00;;;13.74;72.81
17311;BME280;8773;43.300;0.394;2023-05-15T04:44:04;100138.84;;;13.69;73.21
17311;BME280;8773;43.300;0.394;2023-05-15T04:46:33;100144.69;;;13.81;72.68
17311;BME280;8773;43.300;0.394;2023-05-15T04:49:00;100140.84;;;13.84;72.68
17311;BME280;8773;43.300;0.394;2023-05-15T04:51:27;100137.16;;;13.68;72.47
17311;BME280;8773;43.300;0.394;2023-05-15T04:53:55;100138.66;;;13.71;72.76
17311;BME280;8773;43.300;0.394;2023-05-15T04:56:22;100137.47;;;13.73;72.75
17311;BME280;8773;43.300;0.394;2023-05-15T04:58:49;100135.44;;;13.59;73.15
17311;BME280;8773;43.300;0.394;2023-05-15T05:01:17;100133.25;;;13.55;73.02
17311;BME280;8773;43.300;0.394;2023-05-15T05:03:46;100141.50;;;13.78;73.06
17311;BME280;8773;43.300;0.394;2023-05-15T05:06:13;100149.75;;;13.92;72.20
17311;BME280;8773;43.300;0.394;2023-05-15T05:08:40;100138.16;;;14.00;72.05
17311;BME280;8773;43.300;0.394;2023-05-15T05:11:08;100146.56;;;14.05;71.69
17311;BME280;8773;43.300;0.394;2023-05-15T05:13:35;100140.34;;;14.04;71.48
17311;BME280;8773;43.300;0.394;2023-05-15T05:16:03;100136.00;;;13.95;71.79
17311;BME280;8773;43.300;0.394;2023-05-15T05:18:30;100144.03;;;13.87;72.01
17311;BME280;8773;43.300;0.394;2023-05-15T05:20:59;100142.19;;;13.80;72.33
17311;BME280;8773;43.300;0.394;2023-05-15T05:23:27;100137.31;;;13.75;72.44
17311;BME280;8773;43.300;0.394;2023-05-15T05:25:55;100135.31;;;13.69;72.38
17311;BME280;8773;43.300;0.394;2023-05-15T05:28:22;100142.34;;;13.70;72.97
17311;BME280;8773;43.300;0.394;2023-05-15T05:30:50;100130.78;;;13.69;72.38
17311;BME280;8773;43.300;0.394;2023-05-15T05:33:17;100142.84;;;13.82;72.55
17311;BME280;8773;43.300;0.394;2023-05-15T05:35:44;100145.84;;;13.70;72.42
17311;BME280;8773;43.300;0.394;2023-05-15T05:38:13;100138.81;;;13.78;72.17
17311;BME280;8773;43.300;0.394;2023-05-15T05:40:40;100141.00;;;13.66;72.47
17311;BME280;8773;43.300;0.394;2023-05-15T05:43:08;100148.56;;;13.79;72.11
17311;BME280;8773;43.300;0.394;2023-05-15T05:45:36;100152.06;;;13.79;72.03
17311;BME280;8773;43.300;0.394;2023-05-15T05:48:03;100147.88;;;13.77;72.13
17311;BME280;8773;43.300;0.394;2023-05-15T05:50:31;100147.69;;;13.70;72.00
17311;BME280;8773;43.300;0.394;2023-05-15T05:52:58;100150.06;;;13.81;72.41
17311;BME280;8773;43.300;0.394;2023-05-15T05:55:27;100145.06;;;13.94;71.96
17311;BME280;8773;43.300;0.394;2023-05-15T05:57:54;100148.75;;;14.01;71.65
17311;BME280;8773;43.300;0.394;2023-05-15T06:00:23;100146.56;;;14.05;71.20
17311;BME280;8773;43.300;0.394;2023-05-15T06:02:54;100147.06;;;14.09;71.13
17311;BME280;8773;43.300;0.394;2023-05-15T06:05:22;100150.94;;;13.98;71.39
17311;BME280;8773;43.300;0.394;2023-05-15T06:07:50;100151.94;;;13.89;71.46
17311;BME280;8773;43.300;0.394;2023-05-15T06:10:18;100148.56;;;13.87;71.21
17311;BME280;8773;43.300;0.394;2023-05-15T06:12:48;100156.59;;;13.79;71.67
17311;BME280;8773;43.300;0.394;2023-05-15T06:15:15;100156.78;;;13.85;72.00
17311;BME280;8773;43.300;0.394;2023-05-15T06:17:42;100157.47;;;13.95;71.29
17311;BME280;8773;43.300;0.394;2023-05-15T06:20:10;100158.31;;;13.96;71.57
17311;BME280;8773;43.300;0.394;2023-05-15T06:22:38;100162.63;;;13.72;71.47
17311;BME280;8773;43.300;0.394;2023-05-15T06:25:06;100156.28;;;13.82;71.34
17311;BME280;8773;43.300;0.394;2023-05-15T06:27:33;100153.94;;;13.87;71.24
17311;BME280;8773;43.300;0.394;2023-05-15T06:30:03;100161.00;;;13.96;71.21
17311;BME280;8773;43.300;0.394;2023-05-15T06:32:30;100159.81;;;13.90;71.39
17311;BME280;8773;43.300;0.394;2023-05-15T06:35:00;100153.28;;;13.93;71.54
17311;BME280;8773;43.300;0.394;2023-05-15T06:37:28;100158.31;;;13.96;71.39
17311;BME280;8773;43.300;0.394;2023-05-15T06:39:56;100149.91;;;13.91;71.36
17311;BME280;8773;43.300;0.394;2023-05-15T06:42:23;100158.13;;;13.89;71.57
17311;BME280;8773;43.300;0.394;2023-05-15T06:44:51;100148.91;;;13.84;71.79
17311;BME280;8773;43.300;0.394;2023-05-15T06:47:19;100147.91;;;14.09;71.11
17311;BME280;8773;43.300;0.394;2023-05-15T06:49:47;100148.75;;;14.01;71.41
17311;BME280;8773;43.300;0.394;2023-05-15T06:52:14;100145.56;;;13.98;71.27
17311;BME280;8773;43.300;0.394;2023-05-15T06:54:41;100143.88;;;14.05;70.99
17311;BME280;8773;43.300;0.394;2023-05-15T06:57:09;100154.59;;;14.21;70.56
17311;BME280;8773;43.300;0.394;2023-05-15T06:59:36;100147.53;;;14.36;70.67
17311;BME280;8773;43.300;0.394;2023-05-15T07:02:04;100151.06;;;14.21;70.36
17311;BME280;8773;43.300;0.394;2023-05-15T07:04:33;100145.84;;;14.35;70.56
17311;BME280;8773;43.300;0.394;2023-05-15T07:07:01;100137.63;;;14.45;70.08
17311;BME280;8773;43.300;0.394;2023-05-15T07:09:28;100133.41;;;14.51;69.45
17311;BME280;8773;43.300;0.394;2023-05-15T07:11:55;100143.50;;;14.49;69.44
17311;BME280;8773;43.300;0.394;2023-05-15T07:14:23;100135.38;;;14.57;70.00
17311;BME280;8773;43.300;0.394;2023-05-15T07:16:50;100143.31;;;14.42;70.17
17311;BME280;8773;43.300;0.394;2023-05-15T07:19:18;100134.53;;;14.56;68.98
17311;BME280;8773;43.300;0.394;2023-05-15T07:21:47;100142.25;;;14.76;68.69
17311;BME280;8773;43.300;0.394;2023-05-15T07:24:14;100141.91;;;14.79;67.72
17311;BME280;8773;43.300;0.394;2023-05-15T07:26:41;100136.50;;;14.87;68.26
17311;BME280;8773;43.300;0.394;2023-05-15T07:29:24;100139.84;;;14.97;67.90
17311;BME280;8773;43.300;0.394;2023-05-15T07:31:52;100136.75;;;15.08;67.99
17311;BME280;8773;43.300;0.394;2023-05-15T07:34:19;100139.81;;;15.36;66.90
17311;BME280;8773;43.300;0.394;2023-05-15T07:36:48;100142.00;;;15.32;66.36
17311;BME280;8773;43.300;0.394;2023-05-15T07:39:15;100141.59;;;15.44;66.15
17311;BME280;8773;43.300;0.394;2023-05-15T07:41:43;100135.88;;;15.69;65.15
17311;BME280;8773;43.300;0.394;2023-05-15T07:44:10;100135.72;;;15.94;64.41
17311;BME280;8773;43.300;0.394;2023-05-15T07:46:38;100136.59;;;15.86;64.64
17311;BME280;8773;43.300;0.394;2023-05-15T07:49:05;100141.81;;;15.88;64.55
17311;BME280;8773;43.300;0.394;2023-05-15T07:51:32;100144.63;;;15.71;64.42
17311;BME280;8773;43.300;0.394;2023-05-15T07:54:01;100139.41;;;15.70;64.58
17311;BME280;8773;43.300;0.394;2023-05-15T07:56:28;100140.13;;;15.87;63.62
17311;BME280;8773;43.300;0.394;2023-05-15T07:58:56;100126.97;;;15.92;64.33
17311;BME280;8773;43.300;0.394;2023-05-15T08:01:32;100132.00;;;16.32;63.01
17311;BME280;8773;43.300;0.394;2023-05-15T08:03:59;100137.91;;;16.13;63.67
17311;BME280;8773;43.300;0.394;2023-05-15T08:06:27;100137.19;;;16.19;62.90
17311;BME280;8773;43.300;0.394;2023-05-15T08:08:54;100131.56;;;16.44;63.71
17311;BME280;8773;43.300;0.394;2023-05-15T08:11:23;100129.22;;;16.41;62.70
17311;BME280;8773;43.300;0.394;2023-05-15T08:13:50;100131.75;;;16.57;62.25
17311;BME280;8773;43.300;0.394;2023-05-15T08:16:18;100129.81;;;16.80;62.14
17311;BME280;8773;43.300;0.394;2023-05-15T08:18:45;100129.44;;;16.98;61.15
17311;BME280;8773;43.300;0.394;2023-05-15T08:21:13;100137.53;;;16.68;61.47
17311;BME280;8773;43.300;0.394;2023-05-15T08:23:40;100133.06;;;16.76;61.28
17311;BME280;8773;43.300;0.394;2023-05-15T08:26:07;100128.31;;;16.63;61.65
17311;BME280;8773;43.300;0.394;2023-05-15T08:28:36;100126.19;;;16.73;61.23
17311;BME280;8773;43.300;0.394;2023-05-15T08:31:03;100124.69;;;16.56;60.53
17311;BME280;8773;43.300;0.394;2023-05-15T08:33:31;100121.59;;;16.44;61.73
17311;BME280;8773;43.300;0.394;2023-05-15T08:35:58;100123.28;;;16.45;61.29
17311;BME280;8773;43.300;0.394;2023-05-15T08:38:26;100125.50;;;16.42;62.25
17311;BME280;8773;43.300;0.394;2023-05-15T08:40:57;100125.03;;;16.38;61.55
17311;BME280;8773;43.300;0.394;2023-05-15T08:43:28;100116.03;;;16.60;62.03
17311;BME280;8773;43.300;0.394;2023-05-15T08:46:00;100118.75;;;16.75;61.26
17311;BME280;8773;43.300;0.394;2023-05-15T08:48:28;100112.88;;;16.42;61.47
17311;BME280;8773;43.300;0.394;2023-05-15T08:50:56;100109.44;;;16.78;60.74
17311;BME280;8773;43.300;0.394;2023-05-15T08:53:25;100111.66;;;17.03;60.84
17311;BME280;8773;43.300;0.394;2023-05-15T08:55:53;100107.78;;;17.63;59.18
17311;BME280;8773;43.300;0.394;2023-05-15T08:58:21;100096.34;;;18.11;58.30
17311;BME280;8773;43.300;0.394;2023-05-15T09:00:51;100100.25;;;18.57;57.50
17311;BME280;8773;43.300;0.394;2023-05-15T09:03:20;100093.63;;;18.32;55.64
17311;BME280;8773;43.300;0.394;2023-05-15T09:05:48;100093.50;;;18.47;55.20
17311;BME280;8773;43.300;0.394;2023-05-15T09:08:18;100092.50;;;18.48;55.82
17311;BME280;8773;43.300;0.394;2023-05-15T09:10:48;100094.53;;;18.74;55.48
17311;BME280;8773;43.300;0.394;2023-05-15T09:13:16;100099.41;;;18.57;54.95
17311;BME280;8773;43.300;0.394;2023-05-15T09:15:44;100103.19;;;18.34;54.60
17311;BME280;8773;43.300;0.394;2023-05-15T09:18:12;100109.91;;;17.89;56.19
17311;BME280;8773;43.300;0.394;2023-05-15T09:20:42;100109.53;;;17.35;57.23
17311;BME280;8773;43.300;0.394;2023-05-15T09:23:22;100110.59;;;17.19;58.02
17311;BME280;8773;43.300;0.394;2023-05-15T09:25:50;100110.75;;;16.96;58.39
17311;BME280;8773;43.300;0.394;2023-05-15T09:28:24;100109.06;;;16.95;58.89
17311;BME280;8773;43.300;0.394;2023-05-15T09:30:56;100107.41;;;16.94;58.77
17311;BME280;8773;43.300;0.394;2023-05-15T09:33:27;100106.34;;;17.46;58.96
17311;BME280;8773;43.300;0.394;2023-05-15T09:35:56;100095.19;;;17.92;55.68
17311;BME280;8773;43.300;0.394;2023-05-15T09:38:24;100098.72;;;18.48;55.32
17311;BME280;8773;43.300;0.394;2023-05-15T09:41:00;100088.13;;;19.35;53.68
17311;BME280;8773;43.300;0.394;2023-05-15T09:43:28;100087.72;;;19.45;51.81
17311;BME280;8773;43.300;0.394;2023-05-15T09:45:55;100086.91;;;19.51;51.44
17311;BME280;8773;43.300;0.394;2023-05-15T09:48:22;100082.16;;;19.66;50.82
17311;BME280;8773;43.300;0.394;2023-05-15T09:50:50;100085.72;;;19.74;51.69
17311;BME280;8773;43.300;0.394;2023-05-15T09:53:20;100088.31;;;19.34;50.42
17311;BME280;8773;43.300;0.394;2023-05-15T09:55:48;100087.94;;;19.44;51.31
17311;BME280;8773;43.300;0.394;2023-05-15T09:58:17;100093.59;;;19.55;50.73
17311;BME280;8773;43.300;0.394;2023-05-15T10:00:45;100079.44;;;19.93;50.38
17311;BME280;8773;43.300;0.394;2023-05-15T10:03:16;100076.53;;;19.88;50.00
17311;BME280;8773;43.300;0.394;2023-05-15T10:05:44;100081.50;;;19.51;51.18
17311;BME280;8773;43.300;0.394;2023-05-15T10:08:12;100079.84;;;19.77;50.96
17311;BME280;8773;43.300;0.394;2023-05-15T10:10:40;100082.28;;;19.39;50.58
17311;BME280;8773;43.300;0.394;2023-05-15T10:13:08;100075.47;;;19.56;50.77
17311;BME280;8773;43.300;0.394;2023-05-15T10:15:36;100064.22;;;19.79;49.05
17311;BME280;8773;43.300;0.394;2023-05-15T10:18:05;100065.47;;;20.09;49.34
17311;BME280;8773;43.300;0.394;2023-05-15T10:20:34;100057.38;;;20.16;48.93
17311;BME280;8773;43.300;0.394;2023-05-15T10:23:03;100054.59;;;20.36;47.21
17311;BME280;8773;43.300;0.394;2023-05-15T10:25:34;100060.88;;;20.29;47.71
17311;BME280;8773;43.300;0.394;2023-05-15T10:28:08;100052.56;;;19.98;47.52
17311;BME280;8773;43.300;0.394;2023-05-15T10:30:36;100055.88;;;20.00;46.51
17311;BME280;8773;43.300;0.394;2023-05-15T10:33:04;100062.75;;;19.89;47.76
17311;BME280;8773;43.300;0.394;2023-05-15T10:35:32;100056.50;;;19.56;47.88
17311;BME280;8773;43.300;0.394;2023-05-15T10:38:03;100056.50;;;19.56;48.81
17311;BME280;8773;43.300;0.394;2023-05-15T10:40:31;100056.91;;;19.46;48.64
17311;BME280;8773;43.300;0.394;2023-05-15T10:42:59;100063.59;;;19.63;47.79
17311;BME280;8773;43.300;0.394;2023-05-15T10:45:28;100061.44;;;19.26;48.24
17311;BME280;8773;43.300;0.394;2023-05-15T10:47:57;100058.88;;;19.11;48.49
17311;BME280;8773;43.300;0.394;2023-05-15T10:50:25;100048.97;;;19.38;49.25
17311;BME280;8773;43.300;0.394;2023-05-15T10:52:54;100054.00;;;19.81;49.55
17311;BME280;8773;43.300;0.394;2023-05-15T10:55:22;100049.00;;;19.78;48.27
17311;BME280;8773;43.300;0.394;2023-05-15T10:57:49;100040.47;;;20.00;47.58
17311;BME280;8773;43.300;0.394;2023-05-15T11:00:24;100035.25;;;19.92;47.32
17311;BME280;8773;43.300;0.394;2023-05-15T11:02:54;100039.41;;;19.82;47.99
17311;BME280;8773;43.300;0.394;2023-05-15T11:05:22;100051.09;;;19.56;48.99
17311;BME280;8773;43.300;0.394;2023-05-15T11:08:23;100043.16;;;19.61;48.49
17311;BME280;8773;43.300;0.394;2023-05-15T11:10:51;100043.56;;;19.51;48.19
17311;BME280;8773;43.300;0.394;2023-05-15T11:13:18;100043.97;;;19.42;48.21
17311;BME280;8773;43.300;0.394;2023-05-15T11:15:47;100033.69;;;19.17;48.88
17311;BME280;8773;43.300;0.394;2023-05-15T11:18:15;100034.38;;;19.39;48.94
17311;BME280;8773;43.300;0.394;2023-05-15T11:21:07;100023.16;;;20.08;47.22
17311;BME280;8773;43.300;0.394;2023-05-15T11:23:37;100017.72;;;20.08;47.25
17311;BME280;8773;43.300;0.394;2023-05-15T11:26:05;100032.75;;;20.04;47.32
17311;BME280;8773;43.300;0.394;2023-05-15T11:28:40;100036.88;;;19.41;46.81
17311;BME280;8773;43.300;0.394;2023-05-15T11:31:08;100033.09;;;19.22;47.16
17311;BME280;8773;43.300;0.394;2023-05-15T11:33:38;100032.16;;;18.88;47.90
17311;BME280;8773;43.300;0.394;2023-05-15T11:36:06;100026.78;;;19.01;49.00
17311;BME280;8773;43.300;0.394;2023-05-15T11:38:38;100019.34;;;19.17;48.47
17311;BME280;8773;43.300;0.394;2023-05-15T11:41:17;100012.44;;;19.08;46.04
17311;BME280;8773;43.300;0.394;2023-05-15T11:43:45;100014.31;;;19.14;47.63
17311;BME280;8773;43.300;0.394;2023-05-15T11:46:12;100009.69;;;18.88;48.00
17311;BME280;8773;43.300;0.394;2023-05-15T11:48:42;100019.91;;;18.51;48.80
17311;BME280;8773;43.300;0.394;2023-05-15T11:51:15;100014.22;;;18.40;49.34
17311;BME280;8773;43.300;0.394;2023-05-15T11:53:43;100016.13;;;18.46;48.29
17311;BME280;8773;43.300;0.394;2023-05-15T11:56:12;100013.06;;;18.55;48.05
17311;BME280;8773;43.300;0.394;2023-05-15T11:58:43;100015.06;;;18.47;48.64
17311;BME280;8773;43.300;0.394;2023-05-15T12:01:10;100004.56;;;18.58;48.99
17311;BME280;8773;43.300;0.394;2023-05-15T12:03:38;99996.78;;;18.96;48.28
17311;BME280;8773;43.300;0.394;2023-05-15T12:06:09;99988.56;;;19.57;46.49
17311;BME280;8773;43.300;0.394;2023-05-15T12:08:36;99980.38;;;20.23;46.07
17311;BME280;8773;43.300;0.394;2023-05-15T12:11:04;99973.88;;;20.38;45.20
17311;BME280;8773;43.300;0.394;2023-05-15T12:13:32;99966.22;;;20.66;45.43
17311;BME280;8773;43.300;0.394;2023-05-15T12:16:00;99975.06;;;20.55;45.28
17311;BME280;8773;43.300;0.394;2023-05-15T12:18:29;99958.38;;;20.58;44.69
17311;BME280;8773;43.300;0.394;2023-05-15T12:20:57;99965.13;;;20.36;45.07
17311;BME280;8773;43.300;0.394;2023-05-15T12:23:26;99966.44;;;20.07;47.92
17311;BME280;8773;43.300;0.394;2023-05-15T12:25:56;99968.31;;;20.13;47.07
17311;BME280;8773;43.300;0.394;2023-05-15T12:28:25;99973.06;;;20.24;47.26
17311;BME280;8773;43.300;0.394;2023-05-15T12:30:53;99964.34;;;19.95;48.57
17311;BME280;8773;43.300;0.394;2023-05-15T12:33:20;99966.44;;;20.13;47.90
17311;BME280;8773;43.300;0.394;2023-05-15T12:35:50;99966.44;;;20.13;48.44
17311;BME280;8773;43.300;0.394;2023-05-15T12:38:21;99969.41;;;19.59;48.92
17311;BME280;8773;43.300;0.394;2023-05-15T12:40:51;99959.19;;;19.41;48.62
17311;BME280;8773;43.300;0.394;2023-05-15T12:43:19;99947.28;;;19.88;49.77
17311;BME280;8773;43.300;0.394;2023-05-15T12:45:51;99951.22;;;20.06;49.34
17311;BME280;8773;43.300;0.394;2023-05-15T12:48:19;99951.50;;;19.51;51.53
17311;BME280;8773;43.300;0.394;2023-05-15T12:50:46;99957.22;;;18.82;53.06
17311;BME280;8773;43.300;0.394;2023-05-15T12:53:14;99949.84;;;18.15;54.69
17311;BME280;8773;43.300;0.394;2023-05-15T12:55:43;99958.91;;;18.35;52.64
17311;BME280;8773;43.300;0.394;2023-05-15T12:58:14;99962.53;;;18.56;53.41
17311;BME280;8773;43.300;0.394;2023-05-15T13:00:42;99957.81;;;18.71;53.52
17311;BME280;8773;43.300;0.394;2023-05-15T13:03:10;99967.22;;;18.88;53.51
17311;BME280;8773;43.300;0.394;2023-05-15T13:05:41;99949.56;;;19.06;52.65
17311;BME280;8773;43.300;0.394;2023-05-15T13:08:13;99951.88;;;19.15;51.40